| time (UTC) | temp F | wind direction | speed MPH | gust MPH | rain 1hr in | rain 24hr in | rain mn in | humidity % | barometer mb |
| 20260505180100 | 51 | 332 | 0.0 | 10.0 | 0.01 | 0.11 | 0.10 | 83 | 1011.4 |
| 20260505174553 | 51 | 0 | 1.0 | 5.0 | 0.00 | 0.10 | 0.09 | 80 | 1011.0 |
| 20260505173111 | 51 | 360 | 2.0 | 11.0 | 0.00 | 0.10 | 0.09 | 75 | 1010.9 |
| 20260505171610 | 51 | 16 | 1.0 | 7.0 | 0.00 | 0.10 | 0.09 | 75 | 1010.7 |
| 20260505170055 | 52 | 360 | 2.0 | 8.0 | 0.00 | 0.10 | 0.09 | 75 | 1010.8 |
| 20260505164601 | 52 | 329 | 3.0 | 8.0 | 0.00 | 0.10 | 0.09 | 73 | 1010.6 |
| 20260505163055 | 52 | 30 | 1.0 | 10.0 | 0.00 | 0.10 | 0.09 | 75 | 1010.3 |
| 20260505161557 | 52 | 59 | 1.0 | 5.0 | 0.00 | 0.10 | 0.09 | 74 | 1010.3 |
| 20260505153053 | 52 | 46 | 2.0 | 7.0 | 0.00 | 0.10 | 0.09 | 77 | 1009.6 |
| 20260505151555 | 51 | 40 | 2.0 | 9.0 | 0.00 | 0.10 | 0.09 | 77 | 1009.6 |
| 20260505150109 | 51 | 44 | 2.0 | 10.0 | 0.00 | 0.10 | 0.09 | 80 | 1009.1 |
| 20260505130103 | 50 | 28 | 1.0 | 8.0 | 0.00 | 0.08 | 0.06 | 74 | 1010.3 |
| 20260505124558 | 50 | 326 | 2.0 | 8.0 | 0.00 | 0.08 | 0.06 | 72 | 1010.6 |
| 20260505123104 | 51 | 351 | 3.0 | 9.0 | 0.00 | 0.08 | 0.06 | 70 | 1009.5 |
| 20260505121627 | 52 | 15 | 3.0 | 10.0 | 0.00 | 0.08 | 0.06 | 66 | 1009.9 |
| 20260505120057 | 53 | 350 | 3.0 | 11.0 | 0.00 | 0.08 | 0.06 | 66 | 1009.3 |
| 20260505114555 | 53 | 242 | 2.0 | 9.0 | 0.00 | 0.08 | 0.06 | 70 | 1009.0 |
| 20260505113104 | 53 | 27 | 1.0 | 8.0 | 0.00 | 0.08 | 0.06 | 71 | 1008.2 |
| 20260505111556 | 54 | 55 | 3.0 | 8.0 | 0.00 | 0.08 | 0.06 | 70 | 1007.3 |
| 20260505101557 | 55 | 252 | 2.0 | 9.0 | 0.01 | 0.08 | 0.06 | 72 | 1008.6 |
| 20260505100128 | 55 | 342 | 3.0 | 10.0 | 0.01 | 0.08 | 0.06 | 75 | 1007.8 |
| 20260505094554 | 55 | 339 | 3.0 | 11.0 | 0.01 | 0.08 | 0.06 | 74 | 1007.3 |
| 20260505093054 | 56 | 5 | 2.0 | 6.0 | 0.01 | 0.08 | 0.06 | 78 | 1006.8 |
| 20260505091616 | 56 | 291 | 3.0 | 12.0 | 0.00 | 0.07 | 0.05 | 73 | 1006.5 |
| 20260505090101 | 56 | 315 | 2.0 | 13.0 | 0.00 | 0.07 | 0.05 | 77 | 1005.7 |
| 20260505084553 | 56 | 55 | 3.0 | 11.0 | 0.00 | 0.07 | 0.05 | 83 | 1005.7 |
| 20260505083054 | 57 | 348 | 1.0 | 8.0 | 0.00 | 0.07 | 0.05 | 91 | 1005.7 |
| 20260505081554 | 57 | 329 | 2.0 | 6.0 | 0.00 | 0.07 | 0.05 | 92 | 1005.6 |
| 20260505080215 | 58 | 220 | 0.0 | 3.0 | 0.00 | 0.07 | 0.05 | 94 | 1005.8 |
| 20260505074556 | 58 | 0 | 1.0 | 3.0 | 0.00 | 0.07 | 0.05 | 94 | 1006.1 |
| 20260505073100 | 58 | 211 | 1.0 | 3.0 | 0.00 | 0.07 | 0.05 | 94 | 1006.1 |
| 20260505071551 | 58 | 210 | 0.0 | 2.0 | 0.00 | 0.07 | 0.05 | 94 | 1005.7 |
| 20260505070057 | 58 | 210 | 0.0 | 3.0 | 0.00 | 0.07 | 0.05 | 93 | 1005.3 |
| 20260505064607 | 58 | 209 | 1.0 | 3.0 | 0.00 | 0.07 | 0.05 | 93 | 1005.9 |
| 20260505063054 | 58 | 0 | 0.0 | 3.0 | 0.00 | 0.07 | 0.05 | 92 | 1005.6 |
| 20260505061551 | 59 | 0 | 0.0 | 1.0 | 0.02 | 0.07 | 0.05 | 92 | 1004.4 |
| 20260505060058 | 59 | 0 | 0.0 | 2.0 | 0.05 | 0.07 | 0.05 | 91 | 1004.5 |
| 20260505054620 | 60 | 208 | 1.0 | 3.0 | 0.06 | 0.07 | 0.05 | 90 | 1004.8 |
| 20260505053058 | 61 | 200 | 1.0 | 6.0 | 0.06 | 0.07 | 0.05 | 87 | 1004.2 |
| 20260505051556 | 63 | 302 | 1.0 | 4.0 | 0.04 | 0.05 | 0.03 | 84 | 1005.2 |
| 20260505041609 | 67 | 171 | 1.0 | 10.0 | 0.00 | 0.01 | 0.01 | 76 | 1001.7 |
| 20260505040058 | 67 | 192 | 1.0 | 5.0 | 0.00 | 0.01 | 0.01 | 77 | 1001.5 |
| 20260505034552 | 67 | 180 | 2.0 | 8.0 | 0.00 | 0.01 | 0.01 | 77 | 1001.4 |
| 20260505033054 | 67 | 180 | 1.0 | 5.0 | 0.00 | 0.01 | 0.01 | 77 | 1001.4 |
| 20260505031555 | 66 | 184 | 1.0 | 5.0 | 0.00 | 0.01 | 0.01 | 77 | 1001.7 |
| 20260505024601 | 67 | 188 | 2.0 | 5.0 | 0.00 | 0.01 | 0.01 | 76 | 1001.8 |
| 20260505023058 | 67 | 190 | 1.0 | 5.0 | 0.00 | 0.01 | 0.01 | 75 | 1001.7 |
| 20260505021558 | 67 | 202 | 1.0 | 7.0 | 0.00 | 0.01 | 0.01 | 75 | 1001.7 |
| 20260505020104 | 68 | 192 | 2.0 | 7.0 | 0.00 | 0.01 | 0.01 | 74 | 1001.3 |
| 20260505014551 | 68 | 184 | 2.0 | 5.0 | 0.00 | 0.01 | 0.01 | 72 | 1001.2 |
| 20260505013054 | 69 | 173 | 0.0 | 4.0 | 0.00 | 0.01 | 0.01 | 71 | 1001.2 |
| 20260505011556 | 69 | 182 | 1.0 | 5.0 | 0.00 | 0.01 | 0.01 | 69 | 1001.1 |
| 20260505010111 | 70 | 194 | 3.0 | 12.0 | 0.00 | 0.01 | 0.01 | 67 | 1000.9 |
| 20260505004554 | 70 | 165 | 2.0 | 9.0 | 0.00 | 0.01 | 0.01 | 67 | 1000.8 |
| 20260505003054 | 72 | 180 | 3.0 | 13.0 | 0.00 | 0.01 | 0.01 | 64 | 1000.7 |
| 20260505001552 | 73 | 192 | 4.0 | 13.0 | 0.00 | 0.01 | 0.01 | 60 | 1000.8 |
| 20260505000101 | 74 | 191 | 3.0 | 11.0 | 0.00 | 0.01 | 0.01 | 60 | 1000.8 |
| 20260504234554 | 75 | 205 | 4.0 | 11.0 | 0.00 | 0.01 | 0.01 | 59 | 1000.9 |
| 20260504233057 | 75 | 191 | 3.0 | 11.0 | 0.00 | 0.01 | 0.01 | 59 | 1001.3 |
| 20260504231554 | 76 | 186 | 1.0 | 11.0 | 0.00 | 0.01 | 0.01 | 58 | 1001.6 |
| 20260504230114 | 76 | 198 | 4.0 | 13.0 | 0.00 | 0.01 | 0.01 | 57 | 1002.0 |
| 20260504224612 | 76 | 179 | 5.0 | 18.0 | 0.00 | 0.01 | 0.01 | 58 | 1002.2 |
| 20260504223054 | 77 | 193 | 5.0 | 18.0 | 0.00 | 0.01 | 0.01 | 57 | 1002.2 |
| 20260504221556 | 76 | 157 | 4.0 | 9.0 | 0.00 | 0.01 | 0.01 | 60 | 1002.4 |
| 20260504220100 | 75 | 192 | 5.0 | 16.0 | 0.00 | 0.01 | 0.01 | 59 | 1002.5 |
| 20260504214555 | 77 | 186 | 6.0 | 18.0 | 0.00 | 0.01 | 0.01 | 56 | 1002.7 |
| 20260504213100 | 76 | 165 | 6.0 | 16.0 | 0.00 | 0.01 | 0.01 | 58 | 1002.7 |
| 20260504211600 | 76 | 165 | 6.0 | 22.0 | 0.00 | 0.01 | 0.01 | 59 | 1002.8 |
| 20260504204556 | 76 | 142 | 7.0 | 27.0 | 0.00 | 0.01 | 0.01 | 56 | 1002.7 |
| 20260504203056 | 77 | 186 | 7.0 | 23.0 | 0.00 | 0.01 | 0.01 | 57 | 1003.0 |
| 20260504201611 | 76 | 194 | 4.0 | 18.0 | 0.00 | 0.01 | 0.01 | 58 | 1003.2 |
| 20260504194551 | 76 | 155 | 6.0 | 20.0 | 0.00 | 0.01 | 0.01 | 57 | 1003.4 |
| 20260504193053 | 76 | 183 | 8.0 | 26.0 | 0.00 | 0.01 | 0.01 | 58 | 1003.5 |
| 20260504191607 | 76 | 155 | 5.0 | 17.0 | 0.00 | 0.01 | 0.01 | 56 | 1003.7 |
| 20260504190052 | 76 | 164 | 5.0 | 21.0 | 0.00 | 0.01 | 0.01 | 55 | 1003.8 |
| 20260504184556 | 75 | 235 | 5.0 | 19.0 | 0.00 | 0.01 | 0.01 | 57 | 1003.8 |
| 20260504183053 | 75 | 227 | 6.0 | 14.0 | 0.00 | 0.01 | 0.01 | 55 | 1003.7 |
| 20260504181553 | 75 | 219 | 7.0 | 19.0 | 0.00 | 0.01 | 0.01 | 57 | 1004.0 |